»·PEaware :: N12SA KPSP-KTOA

N12SA :: KPSP-KTOA

FLIGHT INFORMATION

Flight Status: Arrived
Operator: Privately registered:
United States
More flights under this callsign
Pilot: Johnny M. (21174)
Aircraft: CESSNA 172 SKYHAWK
(C172)
More flights by this aircraft type
Origin: KPSP Palm Springs Intl
United States
Destination: KTOA Zamperini
United States
More flights between these airports :: More routes between these airports
Route: +CATH1 PSP V388 PDZ PDZ270/16 DOWDD V394 SLI
File this flight plan on PilotEdge
Remarks: TEC route PSPP8A
Altitude:
(Current/Filed)
10,000ft
Speed:
(Current/Filed)
110kts
Departed: 14-Dec-19 12:37 PM
Arrived: 14-Dec-19 01:55 PM
Distance/Time
Traveled:
92nm/1:18
Distance/Time
To Go:
Arrived

Flight Plot

Page will automatically refresh every two minutes.

Flight plan parsing failed; only flown route is shown


Map Options




Map Legend


Flown Route
Filed Route
Departure Airport
Arrival Airport
Navaid (VOR, NDB)
Fix

Horizontal Profiles

Position Reports

Time Latitude Longitude Heading Altitude Ground
Speed
14-Dec-19 12:21 33.826300 -116.508751 272 481ft 0kts
14-Dec-19 12:22 33.826300 -116.508751 272 481ft 0kts
14-Dec-19 12:23 33.826300 -116.508751 272 481ft 0kts
14-Dec-19 12:24 33.826300 -116.508751 272 481ft 0kts
14-Dec-19 12:25 33.826300 -116.508751 272 481ft 0kts
14-Dec-19 12:26 33.826300 -116.508751 272 481ft 0kts
14-Dec-19 12:27 33.826300 -116.508751 272 481ft 0kts
14-Dec-19 12:28 33.826300 -116.508751 272 481ft 0kts
14-Dec-19 12:29 33.826300 -116.508751 272 481ft 0kts
14-Dec-19 12:30 33.826126 -116.508970 203 481ft 7kts
14-Dec-19 12:31 33.826667 -116.507015 326 481ft 9kts
14-Dec-19 12:32 33.826964 -116.507300 141 481ft 29kts
14-Dec-19 12:33 33.819755 -116.500892 143 481ft 28kts
14-Dec-19 12:34 33.818518 -116.498951 86 481ft 0kts
14-Dec-19 12:35 33.819368 -116.498478 322 481ft 28kts
14-Dec-19 12:36 33.836286 -116.511905 328 1225ft 79kts
14-Dec-19 12:37 33.854772 -116.525960 328 2232ft 78kts
14-Dec-19 12:38 33.872346 -116.539538 328 3225ft 71kts
14-Dec-19 12:39 33.889216 -116.552565 328 4029ft 81kts
14-Dec-19 12:40 33.900712 -116.535133 105 4713ft 114kts
14-Dec-19 12:41 33.886381 -116.500028 109 5410ft 117kts
14-Dec-19 12:42 33.872158 -116.465157 142 6099ft 119kts
14-Dec-19 12:43 33.855601 -116.477989 292 6785ft 78kts
14-Dec-19 12:44 33.863127 -116.501354 297 7486ft 72kts
14-Dec-19 12:45 33.871010 -116.523017 297 8192ft 69kts
14-Dec-19 12:46 33.878747 -116.543037 297 8895ft 63kts
14-Dec-19 12:47 33.886141 -116.560800 297 9594ft 55kts
14-Dec-19 12:48 33.894524 -116.579045 297 10023ft 72kts
14-Dec-19 12:49 33.906131 -116.603427 298 10022ft 82kts
14-Dec-19 12:50 33.916634 -116.625144 298 10023ft 73kts
14-Dec-19 12:51 33.925111 -116.648153 290 10033ft 76kts
14-Dec-19 12:52 33.931872 -116.672771 290 10038ft 77kts
14-Dec-19 12:53 33.938430 -116.697684 290 10040ft 78kts
14-Dec-19 12:54 33.944323 -116.722919 289 10040ft 78kts
14-Dec-19 12:56 33.946507 -116.749444 277 10037ft 81kts
14-Dec-19 12:57 33.945502 -116.776521 277 10001ft 87kts
14-Dec-19 12:58 33.944290 -116.805191 277 9999ft 83kts
14-Dec-19 12:59 33.942713 -116.833122 277 10009ft 83kts
14-Dec-19 13:00 33.940847 -116.861155 277 10020ft 84kts
14-Dec-19 13:01 33.938710 -116.889358 277 10028ft 85kts
14-Dec-19 13:02 33.941150 -116.917518 289 10030ft 86kts
14-Dec-19 13:03 33.946023 -116.946103 292 10030ft 87kts
14-Dec-19 13:04 33.950761 -116.974833 291 10030ft 87kts
14-Dec-19 13:05 33.954480 -117.003528 262 10020ft 84kts
14-Dec-19 13:06 33.951428 -117.030220 252 10036ft 77kts
14-Dec-19 13:07 33.945414 -117.055047 248 10026ft 77kts
14-Dec-19 13:08 33.939154 -117.079865 248 10025ft 77kts
14-Dec-19 13:09 33.936809 -117.105851 259 9981ft 82kts
14-Dec-19 13:10 33.937060 -117.132743 259 9485ft 80kts
14-Dec-19 13:11 33.938401 -117.160673 259 8998ft 87kts
14-Dec-19 13:12 33.936847 -117.191268 271 8493ft 97kts
14-Dec-19 13:12 33.932180 -117.217234 279 8051ft 89kts
14-Dec-19 13:14 33.930968 -117.251395 281 7436ft 87kts
14-Dec-19 13:15 33.930123 -117.282410 279 6919ft 96kts
14-Dec-19 13:15 33.929601 -117.310257 279 6486ft 102kts
14-Dec-19 13:17 33.929945 -117.349999 279 6003ft 95kts
14-Dec-19 13:18 33.929479 -117.381043 273 6004ft 91kts
14-Dec-19 13:18 33.926761 -117.407705 271 5999ft 99kts
14-Dec-19 13:20 33.923040 -117.445773 275 6041ft 97kts
14-Dec-19 13:20 33.922216 -117.473088 275 6041ft 97kts
14-Dec-19 13:21 33.921357 -117.505992 275 6023ft 98kts
14-Dec-19 13:23 33.921576 -117.543811 281 6023ft 95kts
14-Dec-19 13:23 33.923618 -117.570289 281 6023ft 95kts
14-Dec-19 13:24 33.926652 -117.601821 287 6022ft 93kts
14-Dec-19 13:25 33.936869 -117.629900 305 6020ft 91kts
14-Dec-19 13:26 33.949897 -117.655927 291 6024ft 93kts
14-Dec-19 13:27 33.955359 -117.686978 281 6024ft 96kts
14-Dec-19 13:28 33.959218 -117.718776 287 6022ft 95kts
14-Dec-19 13:29 33.966602 -117.749523 291 6022ft 95kts
14-Dec-19 13:30 33.974864 -117.779788 292 6023ft 95kts
14-Dec-19 13:31 33.982916 -117.810362 291 6025ft 95kts
14-Dec-19 13:32 33.970119 -117.835448 207 6024ft 123kts
14-Dec-19 13:33 33.939438 -117.852198 219 6013ft 119kts
14-Dec-19 13:34 33.909871 -117.870805 213 6008ft 121kts
14-Dec-19 13:35 33.877630 -117.887087 211 5520ft 124kts
14-Dec-19 13:36 33.846296 -117.902886 211 5017ft 119kts
14-Dec-19 13:37 33.817202 -117.918179 211 4514ft 105kts
14-Dec-19 13:38 33.792215 -117.932111 211 4045ft 94kts
14-Dec-19 13:39 33.772960 -117.952271 227 3528ft 91kts
14-Dec-19 13:40 33.756132 -117.975625 227 3031ft 92kts
14-Dec-19 13:41 33.739536 -117.999839 227 2535ft 94kts
14-Dec-19 13:42 33.722786 -118.024557 227 2040ft 96kts
14-Dec-19 13:43 33.705998 -118.049473 227 2044ft 98kts
14-Dec-19 13:44 33.698861 -118.080251 278 2029ft 108kts
14-Dec-19 13:45 33.706956 -118.115037 278 2031ft 107kts
14-Dec-19 13:46 33.712495 -118.150190 260 2012ft 104kts
14-Dec-19 13:47 33.705609 -118.183464 262 2007ft 103kts
14-Dec-19 13:48 33.720176 -118.214361 300 2013ft 107kts
14-Dec-19 13:49 33.739017 -118.242338 308 2014ft 107kts
14-Dec-19 13:50 33.755906 -118.266721 298 1784ft 90kts
14-Dec-19 13:51 33.772308 -118.291460 316 1182ft 99kts
14-Dec-19 13:52 33.787609 -118.314986 308 566ft 78kts
14-Dec-19 13:53 33.800145 -118.333702 306 123ft 55kts
14-Dec-19 13:54 33.800109 -118.335643 177 107ft 0kts
14-Dec-19 13:55 33.799256 -118.337476 273 107ft 14kts
14-Dec-19 13:56 33.801914 -118.342097 243 107ft 0kts

Navigation Log

Ident Type
Flight plan parsing failed, navigation log unavailable